sensor_id;sensor_type;location;lat;lon;timestamp;temperature;humidity
70830;SHT30;58451;51.550;7.208;2023-01-06T00:01:31;10.91;85.85
70830;SHT30;58451;51.550;7.208;2023-01-06T00:03:04;10.94;86.00
70830;SHT30;58451;51.550;7.208;2023-01-06T00:04:39;10.96;86.07
70830;SHT30;58451;51.550;7.208;2023-01-06T00:06:11;10.97;85.97
70830;SHT30;58451;51.550;7.208;2023-01-06T00:07:43;10.98;85.90
70830;SHT30;58451;51.550;7.208;2023-01-06T00:09:15;10.99;85.92
70830;SHT30;58451;51.550;7.208;2023-01-06T00:10:47;11.00;85.87
70830;SHT30;58451;51.550;7.208;2023-01-06T00:12:19;11.02;85.88
70830;SHT30;58451;51.550;7.208;2023-01-06T00:13:50;11.02;85.87
70830;SHT30;58451;51.550;7.208;2023-01-06T00:15:23;11.04;85.77
70830;SHT30;58451;51.550;7.208;2023-01-06T00:16:54;11.05;85.68
70830;SHT30;58451;51.550;7.208;2023-01-06T00:18:26;11.05;85.62
70830;SHT30;58451;51.550;7.208;2023-01-06T00:19:58;11.05;85.55
70830;SHT30;58451;51.550;7.208;2023-01-06T00:21:30;11.06;85.47
70830;SHT30;58451;51.550;7.208;2023-01-06T00:23:02;11.06;85.38
70830;SHT30;58451;51.550;7.208;2023-01-06T00:24:34;11.06;85.12
70830;SHT30;58451;51.550;7.208;2023-01-06T00:26:06;11.06;85.02
70830;SHT30;58451;51.550;7.208;2023-01-06T00:27:39;11.06;84.88
70830;SHT30;58451;51.550;7.208;2023-01-06T00:29:11;11.06;84.70
70830;SHT30;58451;51.550;7.208;2023-01-06T00:30:43;11.09;84.82
70830;SHT30;58451;51.550;7.208;2023-01-06T00:32:16;11.09;84.80
70830;SHT30;58451;51.550;7.208;2023-01-06T00:33:49;11.09;84.65
70830;SHT30;58451;51.550;7.208;2023-01-06T00:35:21;11.10;84.58
70830;SHT30;58451;51.550;7.208;2023-01-06T00:36:53;11.11;84.60
70830;SHT30;58451;51.550;7.208;2023-01-06T00:38:26;11.10;84.42
70830;SHT30;58451;51.550;7.208;2023-01-06T00:39:59;11.11;84.45
70830;SHT30;58451;51.550;7.208;2023-01-06T00:41:31;11.10;84.43
70830;SHT30;58451;51.550;7.208;2023-01-06T00:43:21;11.12;84.40
70830;SHT30;58451;51.550;7.208;2023-01-06T00:44:53;11.10;84.40
70830;SHT30;58451;51.550;7.208;2023-01-06T00:46:25;11.10;84.33
70830;SHT30;58451;51.550;7.208;2023-01-06T00:48:01;11.10;84.23
70830;SHT30;58451;51.550;7.208;2023-01-06T00:49:33;11.11;84.22
70830;SHT30;58451;51.550;7.208;2023-01-06T00:51:05;11.12;84.27
70830;SHT30;58451;51.550;7.208;2023-01-06T00:52:37;11.11;84.33
70830;SHT30;58451;51.550;7.208;2023-01-06T00:54:09;11.10;84.25
70830;SHT30;58451;51.550;7.208;2023-01-06T00:55:43;11.10;84.27
70830;SHT30;58451;51.550;7.208;2023-01-06T00:57:14;11.11;84.27
70830;SHT30;58451;51.550;7.208;2023-01-06T00:58:46;11.13;84.23
70830;SHT30;58451;51.550;7.208;2023-01-06T01:00:18;11.12;84.15
70830;SHT30;58451;51.550;7.208;2023-01-06T01:01:52;11.15;84.20
70830;SHT30;58451;51.550;7.208;2023-01-06T01:03:29;11.14;84.22
70830;SHT30;58451;51.550;7.208;2023-01-06T01:05:03;11.14;84.03
70830;SHT30;58451;51.550;7.208;2023-01-06T01:06:35;11.13;83.85
70830;SHT30;58451;51.550;7.208;2023-01-06T01:08:08;11.13;83.83
70830;SHT30;58451;51.550;7.208;2023-01-06T01:09:41;11.14;83.92
70830;SHT30;58451;51.550;7.208;2023-01-06T01:11:13;11.13;83.90
70830;SHT30;58451;51.550;7.208;2023-01-06T01:13:05;11.14;83.90
70830;SHT30;58451;51.550;7.208;2023-01-06T01:14:43;11.14;83.83
70830;SHT30;58451;51.550;7.208;2023-01-06T01:16:20;11.13;83.75
70830;SHT30;58451;51.550;7.208;2023-01-06T01:17:52;11.13;83.80
70830;SHT30;58451;51.550;7.208;2023-01-06T01:19:24;11.13;83.58
70830;SHT30;58451;51.550;7.208;2023-01-06T01:20:57;11.13;83.60
70830;SHT30;58451;51.550;7.208;2023-01-06T01:22:30;11.11;83.55
70830;SHT30;58451;51.550;7.208;2023-01-06T01:24:04;11.12;83.60
70830;SHT30;58451;51.550;7.208;2023-01-06T01:25:37;11.13;83.65
70830;SHT30;58451;51.550;7.208;2023-01-06T01:27:11;11.12;83.60
70830;SHT30;58451;51.550;7.208;2023-01-06T01:28:43;11.10;83.38
70830;SHT30;58451;51.550;7.208;2023-01-06T01:30:15;11.10;83.35
70830;SHT30;58451;51.550;7.208;2023-01-06T01:31:47;11.12;83.42
70830;SHT30;58451;51.550;7.208;2023-01-06T01:33:19;11.11;83.42
70830;SHT30;58451;51.550;7.208;2023-01-06T01:34:51;11.09;83.17
70830;SHT30;58451;51.550;7.208;2023-01-06T01:36:23;11.10;83.20
70830;SHT30;58451;51.550;7.208;2023-01-06T01:37:55;11.09;83.18
70830;SHT30;58451;51.550;7.208;2023-01-06T01:39:28;11.09;83.13
70830;SHT30;58451;51.550;7.208;2023-01-06T01:41:01;11.07;83.02
70830;SHT30;58451;51.550;7.208;2023-01-06T01:42:33;11.07;82.82
70830;SHT30;58451;51.550;7.208;2023-01-06T01:46:34;11.06;82.88
70830;SHT30;58451;51.550;7.208;2023-01-06T01:48:12;11.05;82.35
70830;SHT30;58451;51.550;7.208;2023-01-06T01:50:07;11.06;82.65
70830;SHT30;58451;51.550;7.208;2023-01-06T01:52:07;11.05;82.52
70830;SHT30;58451;51.550;7.208;2023-01-06T01:53:44;11.05;82.35
70830;SHT30;58451;51.550;7.208;2023-01-06T01:55:25;11.06;82.38
70830;SHT30;58451;51.550;7.208;2023-01-06T01:57:03;11.06;82.45
70830;SHT30;58451;51.550;7.208;2023-01-06T01:58:59;11.07;82.28
70830;SHT30;58451;51.550;7.208;2023-01-06T02:00:41;11.08;82.32
70830;SHT30;58451;51.550;7.208;2023-01-06T02:02:14;11.09;82.30
70830;SHT30;58451;51.550;7.208;2023-01-06T02:03:49;11.09;81.97
70830;SHT30;58451;51.550;7.208;2023-01-06T02:05:23;11.09;82.27
70830;SHT30;58451;51.550;7.208;2023-01-06T02:06:58;11.08;82.07
70830;SHT30;58451;51.550;7.208;2023-01-06T02:10:51;11.07;81.90
70830;SHT30;58451;51.550;7.208;2023-01-06T02:12:23;11.10;81.77
70830;SHT30;58451;51.550;7.208;2023-01-06T02:13:58;11.08;81.92
70830;SHT30;58451;51.550;7.208;2023-01-06T02:15:42;11.09;82.10
70830;SHT30;58451;51.550;7.208;2023-01-06T02:31:59;11.03;81.77
70830;SHT30;58451;51.550;7.208;2023-01-06T02:38:23;11.01;81.42
70830;SHT30;58451;51.550;7.208;2023-01-06T02:42:27;11.02;81.13
70830;SHT30;58451;51.550;7.208;2023-01-06T02:44:09;11.02;81.50
70830;SHT30;58451;51.550;7.208;2023-01-06T02:49:56;11.06;81.25
70830;SHT30;58451;51.550;7.208;2023-01-06T02:55:27;11.09;81.02
70830;SHT30;58451;51.550;7.208;2023-01-06T02:57:06;11.09;80.53
70830;SHT30;58451;51.550;7.208;2023-01-06T02:59:08;11.12;80.90
70830;SHT30;58451;51.550;7.208;2023-01-06T03:00:58;11.11;80.45
70830;SHT30;58451;51.550;7.208;2023-01-06T03:02:47;11.12;80.02
70830;SHT30;58451;51.550;7.208;2023-01-06T03:04:28;11.14;80.58
70830;SHT30;58451;51.550;7.208;2023-01-06T03:06:09;11.15;80.38
70830;SHT30;58451;51.550;7.208;2023-01-06T03:07:48;11.17;80.77
70830;SHT30;58451;51.550;7.208;2023-01-06T03:09:22;11.16;80.62
70830;SHT30;58451;51.550;7.208;2023-01-06T03:11:04;11.17;80.78
70830;SHT30;58451;51.550;7.208;2023-01-06T03:12:48;11.18;80.83
70830;SHT30;58451;51.550;7.208;2023-01-06T03:14:29;11.17;80.42
70830;SHT30;58451;51.550;7.208;2023-01-06T03:16:08;11.18;80.57
70830;SHT30;58451;51.550;7.208;2023-01-06T03:17:40;11.16;80.33
70830;SHT30;58451;51.550;7.208;2023-01-06T03:19:12;11.18;80.58
70830;SHT30;58451;51.550;7.208;2023-01-06T03:20:45;11.18;80.22
70830;SHT30;58451;51.550;7.208;2023-01-06T03:22:21;11.19;80.38
70830;SHT30;58451;51.550;7.208;2023-01-06T03:23:54;11.18;80.28
70830;SHT30;58451;51.550;7.208;2023-01-06T03:25:26;11.20;80.40
70830;SHT30;58451;51.550;7.208;2023-01-06T03:26:58;11.19;80.27
70830;SHT30;58451;51.550;7.208;2023-01-06T03:28:32;11.19;80.37
70830;SHT30;58451;51.550;7.208;2023-01-06T03:30:04;11.20;80.45
70830;SHT30;58451;51.550;7.208;2023-01-06T03:31:47;11.19;80.00
70830;SHT30;58451;51.550;7.208;2023-01-06T03:33:46;11.17;79.52
70830;SHT30;58451;51.550;7.208;2023-01-06T03:42:06;11.18;79.62
70830;SHT30;58451;51.550;7.208;2023-01-06T03:44:17;11.17;79.62
70830;SHT30;58451;51.550;7.208;2023-01-06T03:46:28;11.19;79.70
70830;SHT30;58451;51.550;7.208;2023-01-06T03:50:37;11.15;79.22
70830;SHT30;58451;51.550;7.208;2023-01-06T03:52:27;11.16;79.23
70830;SHT30;58451;51.550;7.208;2023-01-06T03:54:19;11.15;79.42
70830;SHT30;58451;51.550;7.208;2023-01-06T03:56:05;11.14;78.93
70830;SHT30;58451;51.550;7.208;2023-01-06T03:57:49;11.15;79.13
70830;SHT30;58451;51.550;7.208;2023-01-06T03:59:27;11.17;79.55
70830;SHT30;58451;51.550;7.208;2023-01-06T04:01:04;11.17;79.17
70830;SHT30;58451;51.550;7.208;2023-01-06T04:02:38;11.17;79.22
70830;SHT30;58451;51.550;7.208;2023-01-06T04:04:14;11.18;79.45
70830;SHT30;58451;51.550;7.208;2023-01-06T04:05:48;11.20;79.53
70830;SHT30;58451;51.550;7.208;2023-01-06T04:07:20;11.19;78.97
70830;SHT30;58451;51.550;7.208;2023-01-06T04:08:52;11.21;79.20
70830;SHT30;58451;51.550;7.208;2023-01-06T04:10:24;11.20;79.02
70830;SHT30;58451;51.550;7.208;2023-01-06T04:11:59;11.20;78.82
70830;SHT30;58451;51.550;7.208;2023-01-06T04:13:49;11.19;78.28
70830;SHT30;58451;51.550;7.208;2023-01-06T04:15:23;11.20;78.62
70830;SHT30;58451;51.550;7.208;2023-01-06T04:16:58;11.20;78.27
70830;SHT30;58451;51.550;7.208;2023-01-06T04:18:31;11.19;78.25
70830;SHT30;58451;51.550;7.208;2023-01-06T04:20:03;11.20;78.22
70830;SHT30;58451;51.550;7.208;2023-01-06T04:21:37;11.20;77.50
70830;SHT30;58451;51.550;7.208;2023-01-06T04:23:09;11.21;78.07
70830;SHT30;58451;51.550;7.208;2023-01-06T04:24:42;11.22;78.25
70830;SHT30;58451;51.550;7.208;2023-01-06T04:26:14;11.23;78.50
70830;SHT30;58451;51.550;7.208;2023-01-06T04:27:52;11.21;78.22
70830;SHT30;58451;51.550;7.208;2023-01-06T04:29:25;11.22;77.90
70830;SHT30;58451;51.550;7.208;2023-01-06T04:30:58;11.22;77.70
70830;SHT30;58451;51.550;7.208;2023-01-06T04:32:31;11.19;76.52
70830;SHT30;58451;51.550;7.208;2023-01-06T04:34:03;11.21;76.42
70830;SHT30;58451;51.550;7.208;2023-01-06T04:35:35;11.22;77.23
70830;SHT30;58451;51.550;7.208;2023-01-06T04:37:07;11.22;77.30
70830;SHT30;58451;51.550;7.208;2023-01-06T04:38:39;11.23;76.95
70830;SHT30;58451;51.550;7.208;2023-01-06T04:40:10;11.23;77.07
70830;SHT30;58451;51.550;7.208;2023-01-06T04:41:42;11.23;76.75
70830;SHT30;58451;51.550;7.208;2023-01-06T04:43:14;11.23;76.78
70830;SHT30;58451;51.550;7.208;2023-01-06T04:44:48;11.24;76.92
70830;SHT30;58451;51.550;7.208;2023-01-06T04:46:19;11.25;77.17
70830;SHT30;58451;51.550;7.208;2023-01-06T04:47:51;11.24;77.17
70830;SHT30;58451;51.550;7.208;2023-01-06T04:49:23;11.26;76.75
70830;SHT30;58451;51.550;7.208;2023-01-06T04:50:59;11.26;77.05
70830;SHT30;58451;51.550;7.208;2023-01-06T04:52:35;11.26;76.97
70830;SHT30;58451;51.550;7.208;2023-01-06T04:54:07;11.26;76.68
70830;SHT30;58451;51.550;7.208;2023-01-06T04:55:39;11.26;76.65
70830;SHT30;58451;51.550;7.208;2023-01-06T04:57:12;11.26;77.20
70830;SHT30;58451;51.550;7.208;2023-01-06T04:58:44;11.26;77.13
70830;SHT30;58451;51.550;7.208;2023-01-06T05:00:16;11.27;77.12
70830;SHT30;58451;51.550;7.208;2023-01-06T05:01:48;11.27;76.60
70830;SHT30;58451;51.550;7.208;2023-01-06T05:03:20;11.27;76.65
70830;SHT30;58451;51.550;7.208;2023-01-06T05:04:51;11.27;76.78
70830;SHT30;58451;51.550;7.208;2023-01-06T05:06:23;11.27;76.58
70830;SHT30;58451;51.550;7.208;2023-01-06T05:07:55;11.27;76.73
70830;SHT30;58451;51.550;7.208;2023-01-06T05:09:27;11.27;76.62
70830;SHT30;58451;51.550;7.208;2023-01-06T05:11:02;11.28;76.63
70830;SHT30;58451;51.550;7.208;2023-01-06T05:12:41;11.29;76.88
70830;SHT30;58451;51.550;7.208;2023-01-06T05:14:12;11.28;76.52
70830;SHT30;58451;51.550;7.208;2023-01-06T05:15:44;11.28;76.17
70830;SHT30;58451;51.550;7.208;2023-01-06T05:17:16;11.30;76.27
70830;SHT30;58451;51.550;7.208;2023-01-06T05:18:48;11.29;76.38
70830;SHT30;58451;51.550;7.208;2023-01-06T05:20:19;11.28;75.55
70830;SHT30;58451;51.550;7.208;2023-01-06T05:21:51;11.28;75.83
70830;SHT30;58451;51.550;7.208;2023-01-06T05:23:23;11.30;75.67
70830;SHT30;58451;51.550;7.208;2023-01-06T05:24:55;11.31;75.72
70830;SHT30;58451;51.550;7.208;2023-01-06T05:26:27;11.31;75.63
70830;SHT30;58451;51.550;7.208;2023-01-06T05:27:59;11.35;75.68
70830;SHT30;58451;51.550;7.208;2023-01-06T05:29:30;11.35;75.68
70830;SHT30;58451;51.550;7.208;2023-01-06T05:31:03;11.34;75.37
70830;SHT30;58451;51.550;7.208;2023-01-06T05:32:36;11.36;75.92
70830;SHT30;58451;51.550;7.208;2023-01-06T05:34:09;11.37;75.80
70830;SHT30;58451;51.550;7.208;2023-01-06T05:35:41;11.38;75.78
70830;SHT30;58451;51.550;7.208;2023-01-06T05:37:13;11.38;75.45
70830;SHT30;58451;51.550;7.208;2023-01-06T05:38:49;11.38;75.27
70830;SHT30;58451;51.550;7.208;2023-01-06T05:40:23;11.40;75.47
70830;SHT30;58451;51.550;7.208;2023-01-06T05:41:55;11.40;75.60
70830;SHT30;58451;51.550;7.208;2023-01-06T05:43:27;11.41;75.68
70830;SHT30;58451;51.550;7.208;2023-01-06T05:44:59;11.41;75.60
70830;SHT30;58451;51.550;7.208;2023-01-06T05:46:30;11.41;75.32
70830;SHT30;58451;51.550;7.208;2023-01-06T05:48:02;11.40;75.22
70830;SHT30;58451;51.550;7.208;2023-01-06T05:49:34;11.40;75.17
70830;SHT30;58451;51.550;7.208;2023-01-06T05:51:07;11.41;75.08
70830;SHT30;58451;51.550;7.208;2023-01-06T05:52:44;11.41;75.28
70830;SHT30;58451;51.550;7.208;2023-01-06T05:54:16;11.41;75.12
70830;SHT30;58451;51.550;7.208;2023-01-06T05:55:47;11.43;75.50
70830;SHT30;58451;51.550;7.208;2023-01-06T05:57:19;11.43;75.48
70830;SHT30;58451;51.550;7.208;2023-01-06T05:58:51;11.44;75.42
70830;SHT30;58451;51.550;7.208;2023-01-06T06:00:24;11.43;75.63
70830;SHT30;58451;51.550;7.208;2023-01-06T06:01:56;11.42;75.37
70830;SHT30;58451;51.550;7.208;2023-01-06T06:03:28;11.42;75.33
70830;SHT30;58451;51.550;7.208;2023-01-06T06:05:01;11.43;75.43
70830;SHT30;58451;51.550;7.208;2023-01-06T06:06:33;11.43;75.50
70830;SHT30;58451;51.550;7.208;2023-01-06T06:08:04;11.43;75.37
70830;SHT30;58451;51.550;7.208;2023-01-06T06:09:38;11.42;75.10
70830;SHT30;58451;51.550;7.208;2023-01-06T06:11:14;11.43;75.40
70830;SHT30;58451;51.550;7.208;2023-01-06T06:12:49;11.41;75.12
70830;SHT30;58451;51.550;7.208;2023-01-06T06:14:22;11.40;75.23
70830;SHT30;58451;51.550;7.208;2023-01-06T06:16:02;11.41;75.35
70830;SHT30;58451;51.550;7.208;2023-01-06T06:17:42;11.40;75.05
70830;SHT30;58451;51.550;7.208;2023-01-06T06:19:13;11.42;75.07
70830;SHT30;58451;51.550;7.208;2023-01-06T06:20:45;11.39;74.92
70830;SHT30;58451;51.550;7.208;2023-01-06T06:22:17;11.41;75.20
70830;SHT30;58451;51.550;7.208;2023-01-06T06:23:50;11.43;75.33
70830;SHT30;58451;51.550;7.208;2023-01-06T06:25:23;11.44;75.22
70830;SHT30;58451;51.550;7.208;2023-01-06T06:26:55;11.43;74.90
70830;SHT30;58451;51.550;7.208;2023-01-06T06:28:31;11.42;75.15
70830;SHT30;58451;51.550;7.208;2023-01-06T06:30:07;11.44;75.32
70830;SHT30;58451;51.550;7.208;2023-01-06T06:31:39;11.44;75.03
70830;SHT30;58451;51.550;7.208;2023-01-06T06:33:11;11.44;74.97
70830;SHT30;58451;51.550;7.208;2023-01-06T06:34:42;11.43;74.97
70830;SHT30;58451;51.550;7.208;2023-01-06T06:36:14;11.43;75.13
70830;SHT30;58451;51.550;7.208;2023-01-06T06:37:46;11.43;75.12
70830;SHT30;58451;51.550;7.208;2023-01-06T06:39:18;11.44;75.03
70830;SHT30;58451;51.550;7.208;2023-01-06T06:40:53;11.43;74.92
70830;SHT30;58451;51.550;7.208;2023-01-06T06:42:25;11.43;74.90
70830;SHT30;58451;51.550;7.208;2023-01-06T06:43:56;11.41;74.83
70830;SHT30;58451;51.550;7.208;2023-01-06T06:45:28;11.41;75.00
70830;SHT30;58451;51.550;7.208;2023-01-06T06:47:00;11.43;75.18
70830;SHT30;58451;51.550;7.208;2023-01-06T06:48:32;11.43;75.27
70830;SHT30;58451;51.550;7.208;2023-01-06T06:50:04;11.42;75.10
70830;SHT30;58451;51.550;7.208;2023-01-06T06:51:36;11.42;75.05
70830;SHT30;58451;51.550;7.208;2023-01-06T06:53:08;11.44;75.27
70830;SHT30;58451;51.550;7.208;2023-01-06T06:54:39;11.43;75.10
70830;SHT30;58451;51.550;7.208;2023-01-06T06:56:12;11.42;75.20
70830;SHT30;58451;51.550;7.208;2023-01-06T06:57:47;11.45;75.03
70830;SHT30;58451;51.550;7.208;2023-01-06T06:59:19;11.42;74.97
70830;SHT30;58451;51.550;7.208;2023-01-06T07:00:51;11.44;75.27
70830;SHT30;58451;51.550;7.208;2023-01-06T07:02:23;11.43;75.25
70830;SHT30;58451;51.550;7.208;2023-01-06T07:03:55;11.41;75.25
70830;SHT30;58451;51.550;7.208;2023-01-06T07:05:26;11.38;75.22
70830;SHT30;58451;51.550;7.208;2023-01-06T07:06:59;11.40;75.32
70830;SHT30;58451;51.550;7.208;2023-01-06T07:08:31;11.40;75.42
70830;SHT30;58451;51.550;7.208;2023-01-06T07:10:06;11.39;75.35
70830;SHT30;58451;51.550;7.208;2023-01-06T07:11:38;11.39;75.53
70830;SHT30;58451;51.550;7.208;2023-01-06T07:13:10;11.37;75.45
70830;SHT30;58451;51.550;7.208;2023-01-06T07:14:42;11.37;75.43
70830;SHT30;58451;51.550;7.208;2023-01-06T07:16:14;11.39;75.55
70830;SHT30;58451;51.550;7.208;2023-01-06T07:17:50;11.38;75.55
70830;SHT30;58451;51.550;7.208;2023-01-06T07:19:22;11.38;75.50
70830;SHT30;58451;51.550;7.208;2023-01-06T07:20:53;11.39;75.58
70830;SHT30;58451;51.550;7.208;2023-01-06T07:22:25;11.39;75.70
70830;SHT30;58451;51.550;7.208;2023-01-06T07:23:57;11.38;75.57
70830;SHT30;58451;51.550;7.208;2023-01-06T07:25:29;11.39;75.53
70830;SHT30;58451;51.550;7.208;2023-01-06T07:27:01;11.41;75.68
70830;SHT30;58451;51.550;7.208;2023-01-06T07:28:33;11.40;75.68
70830;SHT30;58451;51.550;7.208;2023-01-06T07:30:05;11.41;75.60
70830;SHT30;58451;51.550;7.208;2023-01-06T07:31:37;11.41;75.58
70830;SHT30;58451;51.550;7.208;2023-01-06T07:33:09;11.43;75.62
70830;SHT30;58451;51.550;7.208;2023-01-06T07:34:41;11.42;75.57
70830;SHT30;58451;51.550;7.208;2023-01-06T07:36:13;11.42;75.62
70830;SHT30;58451;51.550;7.208;2023-01-06T07:37:45;11.42;75.62
70830;SHT30;58451;51.550;7.208;2023-01-06T07:39:17;11.43;75.63
70830;SHT30;58451;51.550;7.208;2023-01-06T07:42:29;11.45;75.53
70830;SHT30;58451;51.550;7.208;2023-01-06T07:44:01;11.45;75.68
70830;SHT30;58451;51.550;7.208;2023-01-06T07:45:35;11.44;75.42
70830;SHT30;58451;51.550;7.208;2023-01-06T07:47:08;11.44;75.48
70830;SHT30;58451;51.550;7.208;2023-01-06T07:48:41;11.44;75.55
70830;SHT30;58451;51.550;7.208;2023-01-06T07:50:12;11.45;75.47
70830;SHT30;58451;51.550;7.208;2023-01-06T07:51:44;11.46;75.12
70830;SHT30;58451;51.550;7.208;2023-01-06T07:53:16;11.48;75.20
70830;SHT30;58451;51.550;7.208;2023-01-06T07:54:48;11.49;75.12
70830;SHT30;58451;51.550;7.208;2023-01-06T07:56:20;11.49;75.12
70830;SHT30;58451;51.550;7.208;2023-01-06T07:57:53;11.50;75.02
70830;SHT30;58451;51.550;7.208;2023-01-06T07:59:25;11.51;75.03
70830;SHT30;58451;51.550;7.208;2023-01-06T08:00:57;11.52;75.12
70830;SHT30;58451;51.550;7.208;2023-01-06T08:02:37;11.50;74.67
70830;SHT30;58451;51.550;7.208;2023-01-06T08:04:09;11.51;74.82
70830;SHT30;58451;51.550;7.208;2023-01-06T08:05:41;11.52;74.93
70830;SHT30;58451;51.550;7.208;2023-01-06T08:07:14;11.53;74.88
70830;SHT30;58451;51.550;7.208;2023-01-06T08:08:48;11.51;74.63
70830;SHT30;58451;51.550;7.208;2023-01-06T08:10:23;11.52;74.60
70830;SHT30;58451;51.550;7.208;2023-01-06T08:11:55;11.53;74.60
70830;SHT30;58451;51.550;7.208;2023-01-06T08:13:28;11.52;74.65
70830;SHT30;58451;51.550;7.208;2023-01-06T08:15:02;11.54;74.72
70830;SHT30;58451;51.550;7.208;2023-01-06T08:16:37;11.56;74.85
70830;SHT30;58451;51.550;7.208;2023-01-06T08:18:10;11.56;74.85
70830;SHT30;58451;51.550;7.208;2023-01-06T08:19:42;11.56;74.87
70830;SHT30;58451;51.550;7.208;2023-01-06T08:21:13;11.56;74.75
70830;SHT30;58451;51.550;7.208;2023-01-06T08:22:45;11.57;74.72
70830;SHT30;58451;51.550;7.208;2023-01-06T08:24:18;11.59;74.68
70830;SHT30;58451;51.550;7.208;2023-01-06T08:25:49;11.60;74.83
70830;SHT30;58451;51.550;7.208;2023-01-06T08:27:22;11.61;74.75
70830;SHT30;58451;51.550;7.208;2023-01-06T08:28:54;11.61;74.77
70830;SHT30;58451;51.550;7.208;2023-01-06T08:30:27;11.61;74.77
70830;SHT30;58451;51.550;7.208;2023-01-06T08:31:59;11.63;74.92
70830;SHT30;58451;51.550;7.208;2023-01-06T08:33:41;11.63;74.88
70830;SHT30;58451;51.550;7.208;2023-01-06T08:35:14;11.62;74.88
70830;SHT30;58451;51.550;7.208;2023-01-06T08:36:47;11.64;74.88
70830;SHT30;58451;51.550;7.208;2023-01-06T08:38:19;11.67;75.05
70830;SHT30;58451;51.550;7.208;2023-01-06T08:39:50;11.67;75.03
70830;SHT30;58451;51.550;7.208;2023-01-06T08:41:23;11.68;75.10
70830;SHT30;58451;51.550;7.208;2023-01-06T08:42:55;11.69;75.22
70830;SHT30;58451;51.550;7.208;2023-01-06T08:44:27;11.69;75.20
70830;SHT30;58451;51.550;7.208;2023-01-06T08:45:59;11.69;75.35
70830;SHT30;58451;51.550;7.208;2023-01-06T08:47:34;11.69;75.48
70830;SHT30;58451;51.550;7.208;2023-01-06T08:49:07;11.68;75.67
70830;SHT30;58451;51.550;7.208;2023-01-06T08:50:39;11.66;75.78
70830;SHT30;58451;51.550;7.208;2023-01-06T08:52:12;11.66;75.90
70830;SHT30;58451;51.550;7.208;2023-01-06T08:53:44;11.67;76.03
70830;SHT30;58451;51.550;7.208;2023-01-06T08:55:17;11.70;76.03
70830;SHT30;58451;51.550;7.208;2023-01-06T08:56:50;11.71;76.12
70830;SHT30;58451;51.550;7.208;2023-01-06T08:58:22;11.71;76.13
70830;SHT30;58451;51.550;7.208;2023-01-06T08:59:54;11.70;76.20
70830;SHT30;58451;51.550;7.208;2023-01-06T09:01:27;11.69;76.53
70830;SHT30;58451;51.550;7.208;2023-01-06T09:03:03;11.67;76.85
70830;SHT30;58451;51.550;7.208;2023-01-06T09:04:35;11.64;77.03
70830;SHT30;58451;51.550;7.208;2023-01-06T09:06:07;11.63;77.10
70830;SHT30;58451;51.550;7.208;2023-01-06T09:07:39;11.60;77.32
70830;SHT30;58451;51.550;7.208;2023-01-06T09:09:11;11.60;77.37
70830;SHT30;58451;51.550;7.208;2023-01-06T09:10:43;11.63;77.27
70830;SHT30;58451;51.550;7.208;2023-01-06T09:12:15;11.62;77.28
70830;SHT30;58451;51.550;7.208;2023-01-06T09:13:48;11.62;77.32
70830;SHT30;58451;51.550;7.208;2023-01-06T09:15:21;11.64;77.32
70830;SHT30;58451;51.550;7.208;2023-01-06T09:16:53;11.68;77.35
70830;SHT30;58451;51.550;7.208;2023-01-06T09:18:25;11.73;77.27
70830;SHT30;58451;51.550;7.208;2023-01-06T09:19:58;11.72;77.38
70830;SHT30;58451;51.550;7.208;2023-01-06T09:21:32;11.72;77.30
70830;SHT30;58451;51.550;7.208;2023-01-06T09:23:04;11.73;77.32
70830;SHT30;58451;51.550;7.208;2023-01-06T09:24:35;11.78;77.25
70830;SHT30;58451;51.550;7.208;2023-01-06T09:26:08;11.77;77.15
70830;SHT30;58451;51.550;7.208;2023-01-06T09:27:41;11.78;77.20
70830;SHT30;58451;51.550;7.208;2023-01-06T09:29:13;11.78;77.35
70830;SHT30;58451;51.550;7.208;2023-01-06T09:30:45;11.76;77.47
70830;SHT30;58451;51.550;7.208;2023-01-06T09:32:19;11.77;77.57
70830;SHT30;58451;51.550;7.208;2023-01-06T09:33:51;11.78;77.52
70830;SHT30;58451;51.550;7.208;2023-01-06T09:35:22;11.79;77.57
70830;SHT30;58451;51.550;7.208;2023-01-06T09:36:54;11.81;77.58
70830;SHT30;58451;51.550;7.208;2023-01-06T09:38:26;11.84;77.60
70830;SHT30;58451;51.550;7.208;2023-01-06T09:39:58;11.86;77.50
70830;SHT30;58451;51.550;7.208;2023-01-06T09:45:19;11.86;77.67
70830;SHT30;58451;51.550;7.208;2023-01-06T09:47:06;11.83;78.05
70830;SHT30;58451;51.550;7.208;2023-01-06T09:48:46;11.80;78.33
70830;SHT30;58451;51.550;7.208;2023-01-06T09:50:36;11.75;78.57
70830;SHT30;58451;51.550;7.208;2023-01-06T09:54:31;11.60;79.25
70830;SHT30;58451;51.550;7.208;2023-01-06T09:56:12;11.59;79.03
70830;SHT30;58451;51.550;7.208;2023-01-06T09:57:51;11.60;79.07
70830;SHT30;58451;51.550;7.208;2023-01-06T09:59:46;11.60;79.13
70830;SHT30;58451;51.550;7.208;2023-01-06T10:01:36;11.60;79.20
70830;SHT30;58451;51.550;7.208;2023-01-06T10:03:24;11.61;79.30
70830;SHT30;58451;51.550;7.208;2023-01-06T10:04:57;11.63;79.48
70830;SHT30;58451;51.550;7.208;2023-01-06T10:08:24;11.59;80.05
70830;SHT30;58451;51.550;7.208;2023-01-06T10:13:51;11.52;80.85
70830;SHT30;58451;51.550;7.208;2023-01-06T10:21:36;11.61;80.82
70830;SHT30;58451;51.550;7.208;2023-01-06T10:27:09;11.54;80.92
70830;SHT30;58451;51.550;7.208;2023-01-06T10:29:17;11.49;81.27
70830;SHT30;58451;51.550;7.208;2023-01-06T10:30:51;11.50;81.02
70830;SHT30;58451;51.550;7.208;2023-01-06T10:32:29;11.53;80.90
70830;SHT30;58451;51.550;7.208;2023-01-06T10:34:05;11.55;80.88
70830;SHT30;58451;51.550;7.208;2023-01-06T10:35:56;11.55;81.05
70830;SHT30;58451;51.550;7.208;2023-01-06T10:37:36;11.55;81.05
70830;SHT30;58451;51.550;7.208;2023-01-06T10:39:13;11.57;80.90
70830;SHT30;58451;51.550;7.208;2023-01-06T10:40:48;11.57;81.02
70830;SHT30;58451;51.550;7.208;2023-01-06T10:44:29;11.63;80.85
70830;SHT30;58451;51.550;7.208;2023-01-06T10:46:01;11.65;80.78
70830;SHT30;58451;51.550;7.208;2023-01-06T10:47:33;11.70;80.67
70830;SHT30;58451;51.550;7.208;2023-01-06T10:49:06;11.76;80.67
70830;SHT30;58451;51.550;7.208;2023-01-06T10:50:50;11.84;80.52
70830;SHT30;58451;51.550;7.208;2023-01-06T10:52:22;11.90;80.38
70830;SHT30;58451;51.550;7.208;2023-01-06T10:53:57;11.97;80.22
70830;SHT30;58451;51.550;7.208;2023-01-06T10:57:28;12.01;79.87
70830;SHT30;58451;51.550;7.208;2023-01-06T10:59:11;12.07;79.63
70830;SHT30;58451;51.550;7.208;2023-01-06T11:01:00;12.13;79.65
70830;SHT30;58451;51.550;7.208;2023-01-06T11:02:44;12.14;79.47
70830;SHT30;58451;51.550;7.208;2023-01-06T11:04:35;12.11;79.30
70830;SHT30;58451;51.550;7.208;2023-01-06T11:06:25;12.16;79.22
70830;SHT30;58451;51.550;7.208;2023-01-06T11:09:43;12.19;79.12
70830;SHT30;58451;51.550;7.208;2023-01-06T11:11:16;12.25;79.03
70830;SHT30;58451;51.550;7.208;2023-01-06T11:12:59;12.32;78.87